Riverbank, California
Current Conditions -  °F | °C
As of 1:53 PM on Monday 22 Dec 2014 (Local Time) from KMOD Reporting Station
Overcast Overcast  
Wind Chill: 60°   Ceiling: 1400
Heat Index: 60°   Visibility: 10mi
Dew Point: 54°   Wind: 10mph
Humidity: 80%   Direction: 330°NNW
Pressure: 30.18"   Gusts: NA
Location:  37.74°N, 120.93°W
Report Text: KMOD 222153Z 33009KT 10SM OVC014 16/12 A3018 RMK AO2 SLP221 T01560122
Loading
Personal Weather Stations






























Interactive Weather Map New forecast layout! Learn more

10-Day Weather Forecast

Advertisements
Track Severe Weather on mobile